Terminal Aerodrome Forecast
Issued by NWS

Home | Current Version | Previous Version | Text Only | Print | Product List | Glossary On
Versions: 1 2 3 4 5 6 7 8 9 10 11 12 13
724
FTUS45 KRIW 191720
TAFRKS
TAF
KRKS 191720Z 1918/2018 VRB06KT P6SM SCT250
     FM200200 20009KT P6SM FEW080 WS010/23030KT
     FM201700 20020G30KT P6SM FEW060=

USA.gov is the U.S. government's official web portal to all federal, state and local government web resources and services.